Maghera, United Kingdom
Current Conditions -  °F | °C
As of 1:50 PM on Wednesday 26 Nov 2014 (Local Time) from EGAA Reporting Station
Broken Clouds Broken Clouds  
Wind Chill: 45°   Ceiling: 2900
Heat Index: 45°   Visibility: 4mi
Dew Point: 43°   Wind: 3mph
Humidity: 93%   Direction: 60°ENE
Pressure: 29.88"   Gusts: NA
Location:  54.84°N, 6.67°W
Report Text: EGAA 261350Z 06003KT 6000 FEW023 BKN029 BKN035 07/06 Q1012
Loading
Personal Weather Stations






























Interactive Weather Map New forecast layout! Learn more

10-Day Weather Forecast

Advertisements
Track Severe Weather on mobile